createdAt,value
2019-04-23T00:01:29.494Z,18.40
2019-04-23T00:03:58.401Z,18.50
2019-04-23T00:06:47.604Z,18.40
2019-04-23T00:09:07.416Z,18.40
2019-04-23T00:16:36.409Z,18.30
2019-04-23T00:18:56.062Z,18.30
2019-04-23T00:21:42.601Z,18.30
2019-04-23T00:24:53.290Z,18.30
2019-04-23T00:27:10.190Z,18.20
2019-04-23T00:29:40.212Z,18.20
2019-04-23T00:32:04.826Z,18.20
2019-04-23T00:34:33.334Z,18.10
2019-04-23T00:37:06.494Z,18.10
2019-04-23T00:39:37.585Z,18.10
2019-04-23T00:42:12.049Z,18.00
2019-04-23T00:44:41.047Z,18.00
2019-04-23T00:47:01.329Z,18.00
2019-04-23T00:49:30.958Z,18.00
2019-04-23T00:52:09.417Z,18.00
2019-04-23T00:54:34.213Z,18.00
2019-04-23T00:57:07.335Z,17.90
2019-04-23T00:59:41.171Z,17.90
2019-04-23T01:02:02.704Z,17.90
2019-04-23T01:04:41.881Z,17.90
2019-04-23T01:07:04.429Z,17.90
2019-04-23T01:09:40.811Z,17.90
2019-04-23T01:12:07.433Z,17.90
2019-04-23T01:14:32.550Z,17.90
2019-04-23T01:17:18.570Z,17.80
2019-04-23T01:19:48.396Z,17.80
2019-04-23T01:21:53.717Z,17.80
2019-04-23T01:24:28.772Z,17.80
2019-04-23T01:27:51.383Z,17.80
2019-04-23T01:35:15.209Z,17.80
2019-04-23T01:37:37.028Z,17.80
2019-04-23T01:40:06.000Z,17.80
2019-04-23T01:42:40.663Z,17.80
2019-04-23T01:45:06.976Z,17.80
2019-04-23T01:47:43.824Z,17.80
2019-04-23T01:50:27.964Z,17.80
2019-04-23T01:52:50.776Z,17.70
2019-04-23T01:55:08.248Z,17.70
2019-04-23T01:57:37.764Z,17.70
2019-04-23T02:00:12.274Z,17.70
2019-04-23T02:02:44.315Z,17.60
2019-04-23T02:07:45.604Z,17.60
2019-04-23T02:10:16.755Z,17.60
2019-04-23T02:12:42.261Z,17.60
2019-04-23T02:15:13.820Z,17.60
2019-04-23T02:17:38.351Z,17.60
2019-04-23T02:23:04.921Z,17.50
2019-04-23T02:25:30.347Z,17.50
2019-04-23T02:27:57.945Z,17.50
2019-04-23T02:30:40.944Z,17.50
2019-04-23T02:32:59.450Z,17.50
2019-04-23T02:38:00.314Z,17.50
2019-04-23T02:40:32.740Z,17.50
2019-04-23T02:48:08.915Z,17.50
2019-04-23T02:52:57.618Z,17.40
2019-04-23T02:55:26.734Z,17.50
2019-04-23T02:58:00.791Z,17.50
2019-04-23T03:00:28.764Z,17.40
2019-04-23T03:03:01.235Z,17.40
2019-04-23T03:05:24.933Z,17.30
2019-04-23T03:07:54.139Z,17.40
2019-04-23T03:10:32.202Z,17.30
2019-04-23T03:13:19.723Z,17.30
2019-04-23T03:15:39.242Z,17.30
2019-04-23T03:18:20.589Z,17.20
2019-04-23T03:25:59.376Z,17.20
2019-04-23T03:28:37.657Z,17.10
2019-04-23T03:32:30.410Z,17.10
2019-04-23T03:38:37.993Z,17.10
2019-04-23T03:41:06.993Z,17.10
2019-04-23T03:43:34.098Z,17.10
2019-04-23T03:48:34.092Z,17.10
2019-04-23T03:50:53.376Z,17.00
2019-04-23T03:56:05.173Z,17.00
2019-04-23T04:04:20.300Z,16.90
2019-04-23T04:06:05.505Z,16.90
2019-04-23T04:08:29.188Z,16.90
2019-04-23T04:11:14.240Z,16.80
2019-04-23T04:13:40.750Z,16.80
2019-04-23T04:18:38.679Z,16.80
2019-04-23T04:21:09.600Z,16.80
2019-04-23T04:26:05.267Z,16.70
2019-04-23T04:31:03.615Z,16.70
2019-04-23T04:33:49.086Z,16.80
2019-04-23T04:36:14.356Z,16.80
2019-04-23T04:38:42.353Z,16.80
2019-04-23T04:41:13.883Z,16.80
2019-04-23T04:43:41.651Z,16.80
2019-04-23T04:46:35.103Z,16.80
2019-04-23T04:51:19.361Z,16.80
2019-04-23T04:56:16.664Z,16.90
2019-04-23T04:58:56.429Z,16.90
2019-04-23T05:03:29.648Z,17.00
2019-04-23T05:06:16.213Z,17.00
2019-04-23T05:08:58.546Z,17.00
2019-04-23T05:16:06.436Z,17.10
2019-04-23T05:18:58.046Z,17.20
2019-04-23T05:21:22.934Z,17.20
2019-04-23T05:23:47.615Z,17.20
2019-04-23T05:26:20.894Z,17.20
2019-04-23T05:28:55.590Z,17.20
2019-04-23T05:31:18.641Z,17.20
2019-04-23T05:33:56.871Z,17.20
2019-04-23T05:36:34.411Z,17.20
2019-04-23T05:39:12.264Z,17.20
2019-04-23T05:41:27.067Z,17.30
2019-04-23T05:46:29.449Z,17.30
2019-04-23T05:48:57.975Z,17.30
2019-04-23T05:51:32.130Z,17.40
2019-04-23T05:56:21.365Z,17.50
2019-04-23T05:58:53.037Z,17.50
2019-04-23T06:04:04.028Z,17.60
2019-04-23T06:14:05.271Z,17.80
2019-04-23T06:16:30.946Z,17.90
2019-04-23T06:19:03.014Z,17.90
2019-04-23T06:21:33.935Z,17.90
2019-04-23T06:24:03.417Z,18.00
2019-04-23T06:28:59.057Z,18.10
2019-04-23T06:31:30.807Z,18.20
2019-04-23T06:34:10.868Z,18.30
2019-04-23T06:39:06.716Z,18.40
2019-04-23T06:41:29.139Z,18.50
2019-04-23T06:49:18.114Z,18.60
2019-04-23T06:54:12.185Z,18.60
2019-04-23T06:56:54.358Z,18.70
2019-04-23T06:59:12.844Z,18.80
2019-04-23T07:01:56.308Z,18.80
2019-04-23T07:04:17.332Z,18.80
2019-04-23T07:06:46.835Z,18.90
2019-04-23T07:11:39.043Z,19.00
2019-04-23T07:14:12.904Z,19.00
2019-04-23T07:16:48.358Z,19.10
2019-04-23T07:19:26.823Z,19.10
2019-04-23T07:21:42.093Z,19.20
2019-04-23T07:26:42.453Z,19.40
2019-04-23T07:29:15.317Z,19.50
2019-04-23T07:31:50.139Z,19.50
2019-04-23T07:34:12.377Z,19.50
2019-04-23T07:36:48.014Z,19.60
2019-04-23T07:39:24.571Z,19.60
2019-04-23T07:44:54.495Z,19.70
2019-04-23T07:47:20.363Z,19.70
2019-04-23T07:49:48.888Z,19.70
2019-04-23T07:54:58.747Z,19.80
2019-04-23T07:57:19.914Z,19.80
2019-04-23T07:59:56.157Z,19.90
2019-04-23T08:02:24.118Z,19.90
2019-04-23T08:05:13.099Z,20.00
2019-04-23T08:07:23.026Z,20.00
2019-04-23T08:09:53.615Z,20.10
2019-04-23T08:14:56.611Z,20.20
2019-04-23T08:17:20.995Z,20.30
2019-04-23T08:19:56.173Z,20.50
2019-04-23T08:25:15.710Z,20.60
2019-04-23T08:30:17.456Z,20.80
2019-04-23T08:32:28.023Z,20.80
2019-04-23T08:35:07.303Z,20.90
2019-04-23T08:40:15.123Z,21.10
2019-04-23T08:42:45.659Z,21.10
2019-04-23T08:45:22.088Z,21.20
2019-04-23T08:47:51.271Z,21.30
2019-04-23T08:50:21.684Z,21.40
2019-04-23T08:52:54.009Z,21.40
2019-04-23T08:55:32.542Z,21.40
2019-04-23T08:57:47.104Z,21.50
2019-04-23T09:00:24.816Z,21.60
2019-04-23T09:03:14.773Z,21.70
2019-04-23T09:05:30.256Z,21.70
2019-04-23T09:08:00.031Z,21.80
2019-04-23T09:10:32.522Z,21.80
2019-04-23T09:13:14.445Z,21.90
2019-04-23T09:15:33.052Z,21.90
2019-04-23T09:17:57.867Z,22.00
2019-04-23T09:20:30.987Z,22.10
2019-04-23T09:22:50.351Z,22.10
2019-04-23T09:25:31.894Z,22.20
2019-04-23T09:27:54.412Z,22.20
2019-04-23T09:30:26.860Z,22.30
2019-04-23T09:33:00.053Z,22.30
2019-04-23T09:38:27.685Z,22.30
2019-04-23T09:43:48.328Z,22.40
2019-04-23T09:46:23.838Z,22.50
2019-04-23T09:48:58.200Z,22.60
2019-04-23T09:51:24.344Z,22.60
2019-04-23T09:53:56.273Z,22.70
2019-04-23T09:56:27.216Z,22.70
2019-04-23T09:58:51.844Z,22.70
2019-04-23T10:01:27.829Z,22.70
2019-04-23T10:03:43.067Z,22.80
2019-04-23T10:06:09.690Z,22.80
2019-04-23T10:08:36.418Z,22.80
2019-04-23T10:11:02.936Z,22.80
2019-04-23T10:13:31.767Z,22.90
2019-04-23T10:16:00.252Z,22.90
2019-04-23T10:18:29.184Z,22.90
2019-04-23T10:20:59.342Z,23.00
2019-04-23T10:23:29.394Z,23.00
2019-04-23T10:25:58.298Z,23.10
2019-04-23T10:28:29.638Z,23.10
2019-04-23T10:30:58.715Z,23.20
2019-04-23T10:33:27.650Z,23.20
2019-04-23T10:36:02.647Z,23.20
2019-04-23T10:38:28.170Z,23.30
2019-04-23T10:40:58.026Z,23.40
2019-04-23T10:43:28.303Z,23.40
2019-04-23T10:46:20.468Z,23.40
2019-04-23T10:49:13.390Z,23.40
2019-04-23T10:54:18.188Z,23.50
2019-04-23T10:56:41.075Z,23.60
2019-04-23T10:59:12.275Z,23.60
2019-04-23T11:01:45.546Z,23.70
2019-04-23T11:04:38.524Z,23.70
2019-04-23T11:06:47.126Z,23.70
2019-04-23T11:09:33.013Z,23.90
2019-04-23T11:11:52.552Z,23.80
2019-04-23T11:14:24.889Z,23.90
2019-04-23T11:19:27.695Z,24.00
2019-04-23T11:21:56.099Z,24.00
2019-04-23T11:24:32.504Z,24.00
2019-04-23T11:26:49.572Z,24.00
2019-04-23T11:29:30.121Z,24.10
2019-04-23T11:31:58.225Z,24.00
2019-04-23T11:34:34.611Z,24.10
2019-04-23T11:39:26.766Z,24.20
2019-04-23T11:42:01.088Z,24.20
2019-04-23T11:44:31.482Z,24.30
2019-04-23T11:49:46.249Z,24.50
2019-04-23T11:52:05.582Z,24.50
2019-04-23T11:54:24.211Z,24.50
2019-04-23T11:59:31.738Z,24.70
2019-04-23T12:02:07.435Z,24.70
2019-04-23T12:10:23.685Z,24.90
2019-04-23T12:15:21.066Z,24.90
2019-04-23T12:17:47.093Z,24.90
2019-04-23T12:22:50.994Z,24.90
2019-04-23T12:28:04.759Z,24.90
2019-04-23T12:32:56.590Z,24.90
2019-04-23T12:35:21.432Z,24.90
2019-04-23T12:43:07.659Z,25.10
2019-04-23T12:45:33.422Z,25.10
2019-04-23T12:53:07.101Z,25.10
2019-04-23T12:58:03.522Z,25.10
2019-04-23T13:00:30.930Z,25.00
2019-04-23T13:02:59.389Z,25.00
2019-04-23T13:05:31.392Z,25.00
2019-04-23T13:08:02.065Z,24.90
2019-04-23T13:10:37.598Z,24.90
2019-04-23T13:13:18.884Z,24.90
2019-04-23T13:15:48.603Z,24.80
2019-04-23T13:18:03.843Z,24.80
2019-04-23T13:20:32.161Z,24.70
2019-04-23T13:28:17.354Z,24.70
2019-04-23T13:30:49.545Z,24.70
2019-04-23T13:33:20.809Z,24.70
2019-04-23T13:35:54.956Z,24.70
2019-04-23T13:43:30.363Z,24.60
2019-04-23T13:48:15.189Z,24.50
2019-04-23T13:51:06.691Z,24.40
2019-04-23T13:53:40.760Z,24.40
2019-04-23T13:55:45.571Z,24.40
2019-04-23T13:58:34.430Z,24.30
2019-04-23T14:01:01.157Z,24.20
2019-04-23T14:03:30.679Z,24.20
2019-04-23T14:06:05.354Z,24.10
2019-04-23T14:08:41.788Z,24.10
2019-04-23T14:10:55.828Z,24.10
2019-04-23T14:16:22.811Z,24.00
2019-04-23T14:21:06.023Z,23.90
2019-04-23T14:26:17.001Z,23.90
2019-04-23T14:28:35.517Z,23.90
2019-04-23T14:31:06.821Z,23.80
2019-04-23T14:33:46.641Z,23.80
2019-04-23T14:36:19.594Z,23.80
2019-04-23T14:41:09.604Z,23.80
2019-04-23T14:43:42.733Z,23.90
2019-04-23T14:51:13.465Z,24.00
2019-04-23T14:53:40.771Z,24.00
2019-04-23T14:56:09.726Z,24.00
2019-04-23T15:03:46.896Z,24.10
2019-04-23T15:08:50.110Z,24.10
2019-04-23T15:13:44.517Z,24.20
2019-04-23T15:16:20.929Z,24.20
2019-04-23T15:19:02.677Z,24.20
2019-04-23T15:21:37.629Z,24.30
2019-04-23T15:24:00.195Z,24.40
2019-04-23T15:27:22.384Z,24.40
2019-04-23T15:28:29.072Z,24.40
2019-04-23T15:33:57.208Z,24.40
2019-04-23T15:39:02.430Z,24.40
2019-04-23T15:41:23.427Z,24.30
2019-04-23T15:44:02.000Z,24.20
2019-04-23T15:46:25.359Z,24.20
2019-04-23T15:49:01.220Z,24.10
2019-04-23T15:51:30.957Z,24.00
2019-04-23T15:53:52.911Z,24.00
2019-04-23T15:56:29.223Z,23.90
2019-04-23T15:59:07.049Z,23.90
2019-04-23T16:01:31.962Z,23.90
2019-04-23T16:03:24.556Z,23.80
2019-04-23T16:05:53.161Z,23.70
2019-04-23T16:09:00.942Z,23.70
2019-04-23T16:11:41.214Z,23.60
2019-04-23T16:16:41.247Z,23.50
2019-04-23T16:19:07.242Z,23.50
2019-04-23T16:21:51.748Z,23.40
2019-04-23T16:24:12.678Z,23.40
2019-04-23T16:29:25.860Z,23.20
2019-04-23T16:31:39.824Z,23.20
2019-04-23T16:36:39.834Z,23.10
2019-04-23T16:39:12.172Z,23.10
2019-04-23T16:41:51.668Z,23.00
2019-04-23T16:44:16.895Z,22.90
2019-04-23T16:46:39.187Z,22.90
2019-04-23T16:51:38.161Z,22.70
2019-04-23T16:54:15.233Z,22.70
2019-04-23T16:57:02.392Z,22.60
2019-04-23T17:01:48.916Z,22.40
2019-04-23T17:04:18.204Z,22.40
2019-04-23T17:06:44.186Z,22.30
2019-04-23T17:09:37.077Z,22.20
2019-04-23T17:11:41.800Z,22.20
2019-04-23T17:14:17.846Z,22.20
2019-04-23T17:16:38.281Z,22.10
2019-04-23T17:19:19.260Z,22.00
2019-04-23T17:21:47.514Z,22.00
2019-04-23T17:24:21.188Z,22.00
2019-04-23T17:26:46.463Z,21.90
2019-04-23T17:31:38.267Z,21.80
2019-04-23T17:34:24.409Z,21.80
2019-04-23T17:39:27.068Z,21.60
2019-04-23T17:42:18.505Z,21.60
2019-04-23T17:44:45.595Z,21.50
2019-04-23T17:47:10.233Z,21.50
2019-04-23T17:49:41.677Z,21.30
2019-04-23T17:52:14.314Z,21.30
2019-04-23T17:54:49.940Z,21.30
2019-04-23T17:57:24.321Z,21.20
2019-04-23T18:04:57.773Z,21.10
2019-04-23T18:07:31.974Z,21.00
2019-04-23T18:09:58.292Z,20.90
2019-04-23T18:12:37.207Z,20.90
2019-04-23T18:14:57.284Z,20.90
2019-04-23T18:17:32.943Z,20.80
2019-04-23T18:20:06.627Z,20.80
2019-04-23T18:25:05.750Z,20.70
2019-04-23T18:27:31.405Z,20.60
2019-04-23T18:30:09.958Z,20.60
2019-04-23T18:32:40.628Z,20.60
2019-04-23T18:35:19.873Z,20.50
2019-04-23T18:37:35.961Z,20.50
2019-04-23T18:40:06.818Z,20.40
2019-04-23T18:42:46.362Z,20.30
2019-04-23T18:45:20.568Z,20.30
2019-04-23T18:47:47.439Z,20.20
2019-04-23T18:50:17.474Z,20.20
2019-04-23T18:55:14.565Z,20.00
2019-04-23T18:57:48.570Z,20.00
2019-04-23T19:00:21.984Z,19.90
2019-04-23T19:02:53.731Z,19.90
2019-04-23T19:08:10.565Z,19.90
2019-04-23T19:10:50.845Z,19.80
2019-04-23T19:13:24.702Z,19.80
2019-04-23T19:15:42.322Z,19.80
2019-04-23T19:18:22.245Z,19.70
2019-04-23T19:23:25.560Z,19.60
2019-04-23T19:25:44.172Z,19.70
2019-04-23T19:28:34.548Z,19.60
2019-04-23T19:30:53.871Z,19.60
2019-04-23T19:33:29.070Z,19.60
2019-04-23T19:36:11.485Z,19.50
2019-04-23T19:38:29.155Z,19.50
2019-04-23T19:41:00.658Z,19.50
2019-04-23T19:43:41.824Z,19.50
2019-04-23T19:46:03.923Z,19.50
2019-04-23T19:48:36.098Z,19.40
2019-04-23T19:56:08.851Z,19.40
2019-04-23T19:58:39.732Z,19.40
2019-04-23T20:01:12.116Z,19.30
2019-04-23T20:03:35.781Z,19.30
2019-04-23T20:06:05.905Z,19.30
2019-04-23T20:08:48.602Z,19.30
2019-04-23T20:10:57.428Z,19.20
2019-04-23T20:13:41.136Z,19.20
2019-04-23T20:18:41.548Z,19.20
2019-04-23T20:23:43.170Z,19.10
2019-04-23T20:29:16.126Z,19.00
2019-04-23T20:31:44.983Z,19.10
2019-04-23T20:39:12.164Z,18.90
2019-04-23T20:42:02.367Z,18.90
2019-04-23T20:44:23.642Z,18.90
2019-04-23T20:46:51.733Z,18.90
2019-04-23T20:49:21.417Z,18.80
2019-04-23T20:54:18.293Z,18.70
2019-04-23T20:57:02.093Z,18.70
2019-04-23T20:59:27.068Z,18.70
2019-04-23T21:02:06.372Z,18.60
2019-04-23T21:04:39.754Z,18.60
2019-04-23T21:07:09.991Z,18.60
2019-04-23T21:17:10.249Z,18.50
2019-04-23T21:19:50.771Z,18.50
2019-04-23T21:24:42.753Z,18.50
2019-04-23T21:27:11.067Z,18.50
2019-04-23T21:29:49.290Z,18.40
2019-04-23T21:32:16.313Z,18.40
2019-04-23T21:34:46.878Z,18.30
2019-04-23T21:37:39.524Z,18.30
2019-04-23T21:40:14.044Z,18.30
2019-04-23T21:42:57.251Z,18.30
2019-04-23T21:45:14.152Z,18.20
2019-04-23T21:50:25.228Z,18.10
2019-04-23T21:52:58.235Z,18.10
2019-04-23T21:55:20.563Z,18.10
2019-04-23T21:58:01.365Z,18.10
2019-04-23T22:00:14.446Z,18.00
2019-04-23T22:02:54.063Z,18.00
2019-04-23T22:05:28.411Z,18.00
2019-04-23T22:07:57.831Z,18.00
2019-04-23T22:10:19.595Z,17.90
2019-04-23T22:13:04.068Z,17.90
2019-04-23T22:15:19.967Z,17.90
2019-04-23T22:17:49.593Z,17.90
2019-04-23T22:20:34.771Z,17.80
2019-04-23T22:23:05.106Z,17.80
2019-04-23T22:25:34.805Z,17.80
2019-04-23T22:27:54.986Z,17.80
2019-04-23T22:30:30.381Z,17.70
2019-04-23T22:35:23.700Z,17.70
2019-04-23T22:38:09.105Z,17.70
2019-04-23T22:40:27.862Z,17.70
2019-04-23T22:45:27.173Z,17.60
2019-04-23T22:50:38.500Z,17.60
2019-04-23T22:53:02.727Z,17.60
2019-04-23T22:55:32.785Z,17.60
2019-04-23T22:58:04.751Z,17.60
2019-04-23T23:00:25.552Z,17.50
2019-04-23T23:03:17.414Z,17.50
2019-04-23T23:05:56.329Z,17.50
2019-04-23T23:08:13.384Z,17.50
2019-04-23T23:10:44.192Z,17.50
2019-04-23T23:13:16.510Z,17.50
2019-04-23T23:15:51.489Z,17.50
2019-04-23T23:18:17.102Z,17.50
2019-04-23T23:20:47.794Z,17.50
2019-04-23T23:23:17.981Z,17.50
2019-04-23T23:35:46.940Z,17.50
2019-04-23T23:45:55.371Z,17.50
2019-04-23T23:48:18.703Z,17.50
2019-04-23T23:50:54.642Z,17.50
2019-04-23T23:53:23.327Z,17.50
2019-04-23T23:55:58.513Z,17.50
2019-04-23T23:58:26.983Z,17.50
